Time;durP1;ratioP1;P1;durP2;ratioP2;P2;SDS_P1;SDS_P2;PMS_P1;PMS_P2;Temp;Humidity;BMP_temperature;BMP_pressure;BME280_temperature;BME280_humidity;BME280_pressure;Samples;Min_cycle;Max_cycle;Signal;HPM_P1;HPM_P2
2023/12/17 00:01:29;;;;;;;14.32;7.90;;;;;;;-1.16;78.78;94974.47;2065134;69;20182;-89
2023/12/17 00:03:55;;;;;;;16.63;8.63;;;;;;;-1.19;78.91;94992.00;2065885;69;20160;-91
2023/12/17 00:06:21;;;;;;;16.08;8.55;;;;;;;-1.23;79.67;94989.44;2065791;69;20137;-91
2023/12/17 00:08:48;;;;;;;16.52;8.02;;;;;;;-1.20;78.63;94988.47;2064850;69;20125;-88
2023/12/17 00:11:14;;;;;;;16.65;8.30;;;;;;;-1.44;79.54;94980.31;2064936;69;20605;-90
2023/12/17 00:13:40;;;;;;;15.75;7.93;;;;;;;-1.31;78.77;94975.25;2065793;69;20161;-90
2023/12/17 00:16:08;;;;;;;16.27;8.57;;;;;;;-1.23;78.35;94975.63;2065667;69;20245;-90
2023/12/17 00:18:34;;;;;;;16.85;8.45;;;;;;;-1.25;78.54;94980.84;2065218;69;20141;-89
2023/12/17 00:21:00;;;;;;;13.82;7.20;;;;;;;-1.21;78.75;94969.63;2065596;69;20615;-86
2023/12/17 00:23:26;;;;;;;16.10;7.38;;;;;;;-1.23;77.69;94958.28;2065956;69;20181;-87
2023/12/17 00:25:51;;;;;;;13.48;6.82;;;;;;;-1.20;78.10;94958.06;2065626;69;20668;-88
2023/12/17 00:28:17;;;;;;;14.65;7.15;;;;;;;-1.19;78.42;94959.63;2065287;69;20153;-83
2023/12/17 00:30:43;;;;;;;12.23;6.65;;;;;;;-1.17;78.03;94946.06;2065078;69;20268;-81
2023/12/17 00:33:10;;;;;;;15.43;7.30;;;;;;;-1.18;79.67;94952.84;2065494;69;20149;-87
2023/12/17 00:35:36;;;;;;;11.18;5.97;;;;;;;-1.26;79.23;94946.19;2065329;69;20157;-89
2023/12/17 00:38:02;;;;;;;10.38;5.70;;;;;;;-1.25;78.98;94950.44;2065188;69;20134;-88
2023/12/17 00:40:27;;;;;;;9.27;4.90;;;;;;;-1.20;79.25;94944.25;2065224;69;20501;-87
2023/12/17 00:42:53;;;;;;;7.85;4.15;;;;;;;-1.14;78.39;94944.34;2065073;69;20160;-86
2023/12/17 00:45:22;;;;;;;7.63;4.03;;;;;;;-1.19;78.26;94948.56;2064847;69;20133;-88
2023/12/17 00:47:47;;;;;;;11.10;3.92;;;;;;;-1.32;80.07;94948.84;2064790;69;20280;-88
2023/12/17 00:50:13;;;;;;;9.90;5.45;;;;;;;-1.31;80.32;94949.63;2064752;69;20270;-89
2023/12/17 00:52:39;;;;;;;11.05;5.65;;;;;;;-1.56;80.65;94945.44;2066326;69;20160;-88
2023/12/17 00:55:05;;;;;;;9.63;5.70;;;;;;;-1.41;80.41;94943.44;2066610;69;20176;-88
2023/12/17 00:57:32;;;;;;;10.50;5.07;;;;;;;-1.17;78.94;94951.59;2065732;69;20153;-86
2023/12/17 00:59:58;;;;;;;11.93;5.55;;;;;;;-1.23;78.42;94944.47;2066464;69;20516;-81
2023/12/17 01:02:25;;;;;;;10.10;5.15;;;;;;;-1.13;78.70;94940.34;2066787;69;20140;-80
2023/12/17 01:04:51;;;;;;;8.98;5.15;;;;;;;-1.17;78.53;94939.78;2065848;69;20145;-82
2023/12/17 01:07:19;;;;;;;9.18;5.03;;;;;;;-1.18;78.55;94952.84;2066141;69;20145;-86
2023/12/17 01:09:44;;;;;;;10.40;5.60;;;;;;;-1.25;78.22;94941.41;2065307;69;20173;-88
2023/12/17 01:12:10;;;;;;;10.43;5.35;;;;;;;-1.28;78.87;94940.38;2067161;69;20148;-89
2023/12/17 01:14:35;;;;;;;12.20;5.90;;;;;;;-1.52;79.74;94943.25;2070485;69;20145;-87
2023/12/17 01:17:02;;;;;;;9.48;5.40;;;;;;;-1.47;80.16;94933.53;2071029;69;20140;-88
2023/12/17 01:19:28;;;;;;;10.85;5.22;;;;;;;-1.37;79.17;94946.00;2070881;69;20224;-80
2023/12/17 01:21:57;;;;;;;8.75;4.63;;;;;;;-1.38;79.48;94927.88;2069562;69;20199;-87
2023/12/17 01:24:23;;;;;;;9.73;4.70;;;;;;;-1.38;78.57;94939.69;2068534;69;20123;-81
2023/12/17 01:26:49;;;;;;;9.27;4.78;;;;;;;-1.41;78.41;94917.81;2070905;69;20113;-85
2023/12/17 01:29:17;;;;;;;9.25;4.43;;;;;;;-1.40;78.35;94922.84;2072014;69;20137;-80
2023/12/17 01:31:43;;;;;;;7.50;4.28;;;;;;;-1.30;78.63;94924.25;2070583;69;20159;-79
2023/12/17 01:34:10;;;;;;;7.13;3.67;;;;;;;-1.35;78.81;94911.13;2068604;69;20152;-86
2023/12/17 01:36:36;;;;;;;6.90;3.50;;;;;;;-1.26;79.26;94915.78;2068345;69;20231;-83
2023/12/17 01:39:03;;;;;;;5.43;3.15;;;;;;;-1.31;78.80;94921.97;2070365;69;20133;-89
2023/12/17 01:41:29;;;;;;;6.75;3.28;;;;;;;-1.27;78.57;94930.84;2061755;69;20172;-79
2023/12/17 01:43:55;;;;;;;7.53;3.85;;;;;;;-1.25;78.45;94931.09;2070933;69;20159;-80
2023/12/17 01:46:21;;;;;;;6.85;3.50;;;;;;;-1.22;79.10;94943.22;2068498;69;20152;-80
2023/12/17 01:48:47;;;;;;;4.95;3.20;;;;;;;-1.24;78.95;94934.63;2070095;69;20141;-80
2023/12/17 01:51:13;;;;;;;6.30;3.30;;;;;;;-1.32;78.49;94934.28;2069334;69;20144;-81
2023/12/17 01:53:40;;;;;;;6.10;3.10;;;;;;;-1.38;78.80;94928.66;2066904;69;20145;-81
2023/12/17 01:56:06;;;;;;;5.80;3.20;;;;;;;-1.41;78.89;94931.63;2069813;69;20157;-79
2023/12/17 01:58:32;;;;;;;7.10;3.83;;;;;;;-1.47;79.22;94933.53;2069273;69;20177;-84
2023/12/17 02:00:59;;;;;;;7.10;3.58;;;;;;;-1.43;80.40;94932.09;2068528;69;20246;-87
2023/12/17 02:03:25;;;;;;;6.28;3.22;;;;;;;-1.36;79.17;94933.72;2066502;69;20180;-87
2023/12/17 02:05:51;;;;;;;4.97;3.08;;;;;;;-1.41;79.01;94928.88;2065672;69;20524;-84
2023/12/17 02:08:18;;;;;;;5.50;3.30;;;;;;;-1.42;78.84;94922.59;2065409;69;20228;-88
2023/12/17 02:10:43;;;;;;;5.68;2.92;;;;;;;-1.35;79.00;94933.22;2065139;69;20149;-80
2023/12/17 02:13:10;;;;;;;5.28;2.78;;;;;;;-1.35;79.91;94935.22;2064759;69;20136;-82
2023/12/17 02:15:37;;;;;;;5.10;2.92;;;;;;;-1.46;79.46;94922.00;2065406;69;20137;-81
2023/12/17 02:18:04;;;;;;;6.25;3.20;;;;;;;-1.50;80.03;94918.69;2065395;69;20165;-89
2023/12/17 02:20:31;;;;;;;6.40;3.40;;;;;;;-1.47;79.25;94914.94;2065444;69;20153;-89
2023/12/17 02:22:58;;;;;;;5.82;3.45;;;;;;;-1.43;79.05;94925.81;2065340;69;20532;-90
2023/12/17 02:25:25;;;;;;;4.53;3.13;;;;;;;-1.41;78.86;94924.09;2061678;69;20145;-88
2023/12/17 02:27:50;;;;;;;7.30;3.88;;;;;;;-1.39;79.09;94935.41;2065217;69;20145;-87
2023/12/17 02:30:16;;;;;;;6.53;3.45;;;;;;;-1.42;78.69;94936.41;2065094;69;20604;-88
2023/12/17 02:32:42;;;;;;;5.82;3.17;;;;;;;-1.47;78.32;94944.56;2065208;69;20148;-88
2023/12/17 02:35:07;;;;;;;5.80;3.05;;;;;;;-1.43;78.83;94950.66;2064632;69;20168;-90
2023/12/17 02:37:34;;;;;;;6.22;3.00;;;;;;;-1.56;78.62;94937.16;2065351;69;20588;-90
2023/12/17 02:40:00;;;;;;;4.95;2.90;;;;;;;-1.44;78.83;94960.22;2064681;69;20156;-88
2023/12/17 02:42:25;;;;;;;5.35;3.97;;;;;;;-1.63;81.34;94968.69;2065013;69;20152;-87
2023/12/17 02:44:51;;;;;;;7.50;3.63;;;;;;;-1.71;80.55;94975.06;2065148;69;20145;-88
2023/12/17 02:47:17;;;;;;;6.50;3.90;;;;;;;-1.65;79.95;94973.94;2065008;69;20156;-87
2023/12/17 02:49:44;;;;;;;7.88;4.03;;;;;;;-1.78;81.21;94970.69;2065325;69;20195;-79
2023/12/17 02:52:09;;;;;;;8.15;4.47;;;;;;;-1.75;81.23;94978.03;2064369;69;20149;-86
2023/12/17 02:54:35;;;;;;;9.13;4.07;;;;;;;-1.57;80.20;94969.53;2065294;69;20508;-88
2023/12/17 02:57:01;;;;;;;6.55;3.90;;;;;;;-1.52;80.02;94970.13;2065220;69;20137;-87
2023/12/17 02:59:26;;;;;;;6.65;3.83;;;;;;;-1.54;79.14;94960.31;2061745;69;20143;-90
2023/12/17 03:01:52;;;;;;;8.20;4.03;;;;;;;-1.71;79.21;94944.69;2064645;69;20224;-87
2023/12/17 03:04:19;;;;;;;6.80;4.00;;;;;;;-1.80;79.94;94942.78;2065355;69;20156;-89
2023/12/17 03:06:46;;;;;;;7.38;4.05;;;;;;;-1.66;80.25;94944.03;2064773;69;20207;-91
2023/12/17 03:09:11;;;;;;;6.60;4.10;;;;;;;-1.65;80.74;94948.31;2062107;69;20169;-90
2023/12/17 03:11:37;;;;;;;6.45;3.60;;;;;;;-1.64;79.70;94955.38;2065336;69;20583;-90
2023/12/17 03:14:03;;;;;;;7.07;3.70;;;;;;;-1.56;79.27;94959.25;2064549;69;20502;-91
2023/12/17 03:16:28;;;;;;;6.63;4.10;;;;;;;-1.53;79.54;94966.59;2061799;69;20156;-87
2023/12/17 03:18:54;;;;;;;6.80;3.55;;;;;;;-1.60;78.84;94972.53;2060190;69;20178;-86
2023/12/17 03:21:23;;;;;;;6.40;3.83;;;;;;;-1.57;78.97;94957.72;2062251;69;20156;-91
2023/12/17 03:23:50;;;;;;;6.15;3.33;;;;;;;-1.53;78.79;94958.31;2061548;69;20157;-80
2023/12/17 03:26:16;;;;;;;6.38;3.30;;;;;;;-1.50;79.08;94959.38;2062210;69;20149;-92
2023/12/17 03:28:42;;;;;;;6.57;3.53;;;;;;;-1.55;79.10;94969.09;2062428;69;20137;-88
2023/12/17 03:31:11;;;;;;;12.95;5.53;;;;;;;-1.67;80.57;94979.16;2058777;69;20141;-89
2023/12/17 03:33:38;;;;;;;7.80;4.28;;;;;;;-1.63;79.78;94987.28;2061807;69;20229;-89
2023/12/17 03:36:04;;;;;;;8.60;3.70;;;;;;;-1.60;79.34;94989.84;2061712;69;20165;-82
2023/12/17 03:38:32;;;;;;;6.13;2.85;;;;;;;-1.48;79.79;94992.78;2061748;69;20199;-89
2023/12/17 03:40:57;;;;;;;5.20;2.92;;;;;;;-1.68;79.55;94979.66;2062049;69;20153;-83
2023/12/17 03:43:23;;;;;;;7.85;3.67;;;;;;;-2.16;80.86;94983.28;2061706;69;20223;-82
2023/12/17 03:45:48;;;;;;;8.20;3.97;;;;;;;-1.83;80.48;94972.13;2062794;69;20591;-87
2023/12/17 03:48:14;;;;;;;8.25;3.47;;;;;;;-1.71;79.98;94973.06;2061429;69;20601;-84
2023/12/17 03:50:40;;;;;;;7.28;3.83;;;;;;;-1.68;81.05;94968.59;2061919;69;20604;-86
2023/12/17 03:53:10;;;;;;;6.82;3.40;;;;;;;-1.73;80.43;94963.75;2063964;69;20155;-80
2023/12/17 03:55:39;;;;;;;6.75;3.53;;;;;;;-1.76;80.16;94959.16;2062285;69;20149;-89
2023/12/17 03:58:05;;;;;;;5.82;3.22;;;;;;;-1.75;79.94;94958.69;2061200;69;20145;-82
2023/12/17 04:00:30;;;;;;;6.90;3.47;;;;;;;-1.69;79.51;94953.28;2061957;69;20184;-83
2023/12/17 04:02:56;;;;;;;6.10;3.00;;;;;;;-1.62;78.97;94959.16;2061734;69;20145;-84
2023/12/17 04:05:25;;;;;;;4.82;2.90;;;;;;;-1.58;79.35;94953.44;2061160;69;20553;-86
2023/12/17 04:07:52;;;;;;;5.57;3.38;;;;;;;-1.80;80.55;94960.13;2061883;69;20173;-88
2023/12/17 04:10:18;;;;;;;6.65;3.50;;;;;;;-1.82;80.09;94957.06;2060952;69;20608;-91
2023/12/17 04:12:43;;;;;;;5.45;3.13;;;;;;;-1.64;79.91;94949.84;2061862;69;20165;-91
2023/12/17 04:15:09;;;;;;;7.90;3.30;;;;;;;-1.69;79.24;94947.75;2061212;69;20153;-89
2023/12/17 04:17:34;;;;;;;8.55;3.17;;;;;;;-1.68;79.37;94941.75;2062005;69;20138;-89
2023/12/17 04:20:00;;;;;;;8.30;3.75;;;;;;;-1.58;78.47;94947.94;2061913;69;20145;-86
2023/12/17 04:22:26;;;;;;;5.95;3.10;;;;;;;-1.61;78.71;94944.09;2061424;69;20236;-90
2023/12/17 04:24:51;;;;;;;7.10;3.13;;;;;;;-1.59;79.27;94944.41;2060416;69;20165;-87
2023/12/17 04:27:17;;;;;;;4.72;2.72;;;;;;;-1.54;80.25;94948.50;2061669;69;20150;-82
2023/12/17 04:29:42;;;;;;;6.25;2.80;;;;;;;-1.58;79.07;94950.69;2064170;69;20189;-79
2023/12/17 04:32:08;;;;;;;4.30;2.70;;;;;;;-1.60;79.32;94942.88;2063483;69;20213;-79
2023/12/17 04:34:35;;;;;;;4.75;2.72;;;;;;;-1.73;79.68;94961.00;2063787;69;20540;-87
2023/12/17 04:37:00;;;;;;;6.63;2.90;;;;;;;-1.89;80.49;94957.44;2063021;69;20146;-86
2023/12/17 04:39:26;;;;;;;4.95;2.92;;;;;;;-1.68;80.03;94958.31;2062166;69;20160;-88
2023/12/17 04:41:52;;;;;;;7.70;4.40;;;;;;;-1.66;79.19;94952.31;2062376;69;20145;-88
2023/12/17 04:44:18;;;;;;;5.55;3.20;;;;;;;-1.58;79.09;94967.25;2058828;69;20149;-92
2023/12/17 04:46:45;;;;;;;5.25;2.78;;;;;;;-1.57;79.27;94966.78;2058495;69;20168;-91
2023/12/17 04:49:10;;;;;;;6.10;2.85;;;;;;;-1.57;78.95;94964.00;2062225;69;20149;-90
2023/12/17 04:51:36;;;;;;;4.00;2.25;;;;;;;-1.57;78.92;94966.03;2062988;69;20597;-91
2023/12/17 04:54:02;;;;;;;5.93;2.80;;;;;;;-1.65;79.23;94970.41;2062721;69;20161;-90
2023/12/17 04:56:27;;;;;;;5.78;2.75;;;;;;;-1.63;78.95;94971.47;2062917;69;20149;-86
2023/12/17 04:58:53;;;;;;;4.80;2.40;;;;;;;-1.54;78.72;94970.59;2062248;69;20241;-90
2023/12/17 05:01:18;;;;;;;5.72;3.00;;;;;;;-1.68;79.75;94966.59;2061702;69;20137;-82
2023/12/17 05:03:45;;;;;;;5.97;3.15;;;;;;;-1.67;79.06;94956.31;2060777;69;20153;-86
2023/12/17 05:06:11;;;;;;;4.30;2.78;;;;;;;-1.76;79.47;94950.88;2061383;69;20482;-82
2023/12/17 05:08:37;;;;;;;4.93;2.80;;;;;;;-1.74;79.18;94945.63;2061254;69;20215;-84
2023/12/17 05:11:03;;;;;;;6.40;3.70;;;;;;;-1.65;78.72;94951.06;2061259;69;20145;-88
2023/12/17 05:13:29;;;;;;;5.57;3.60;;;;;;;-1.59;79.09;94946.41;2058452;69;20146;-83
2023/12/17 05:15:55;;;;;;;5.95;3.58;;;;;;;-1.72;78.80;94959.75;2061692;69;20132;-87
2023/12/17 05:18:20;;;;;;;5.85;3.80;;;;;;;-1.77;79.61;94958.41;2061306;69;20145;-91
2023/12/17 05:20:46;;;;;;;5.43;3.55;;;;;;;-1.69;78.81;94967.84;2061701;69;20618;-84
2023/12/17 05:23:12;;;;;;;6.15;4.00;;;;;;;-1.82;79.15;94965.38;2061543;69;20215;-84
2023/12/17 05:25:40;;;;;;;6.97;4.07;;;;;;;-1.68;79.12;94963.84;2061832;69;20145;-82
2023/12/17 05:28:09;;;;;;;6.43;3.78;;;;;;;-1.69;79.26;94962.31;2061628;69;20576;-90
2023/12/17 05:30:35;;;;;;;9.15;4.75;;;;;;;-1.68;79.03;94969.38;2058468;69;20215;-90
2023/12/17 05:33:02;;;;;;;8.63;5.47;;;;;;;-1.63;79.17;94968.69;2061308;69;20142;-85
2023/12/17 05:35:28;;;;;;;8.02;4.90;;;;;;;-1.99;78.72;94930.41;2061278;69;20156;-87
2023/12/17 05:37:53;;;;;;;10.02;5.07;;;;;;;-1.69;78.46;94962.31;2061839;69;20222;-82
2023/12/17 05:40:19;;;;;;;7.50;4.20;;;;;;;-1.73;78.80;94966.50;2061722;69;20197;-85
2023/12/17 05:42:45;;;;;;;7.38;4.05;;;;;;;-1.78;79.66;94961.66;2061951;69;20134;-85
2023/12/17 05:45:12;;;;;;;12.02;5.97;;;;;;;-1.95;79.08;94950.31;2061792;69;20141;-86
2023/12/17 05:47:39;;;;;;;11.85;6.10;;;;;;;-1.81;79.21;94966.13;2061729;69;20129;-92
2023/12/17 05:50:06;;;;;;;11.23;5.47;;;;;;;-1.86;78.84;94947.47;2061166;69;20604;-89
2023/12/17 05:52:32;;;;;;;10.13;6.07;;;;;;;-1.89;78.98;94954.69;2062019;69;20505;-89
2023/12/17 05:54:57;;;;;;;12.80;7.00;;;;;;;-2.03;80.42;94949.91;2061890;69;20153;-91
2023/12/17 05:57:25;;;;;;;10.02;5.82;;;;;;;-1.81;81.57;94955.06;2062072;69;20608;-89
2023/12/17 05:59:52;;;;;;;11.63;5.93;;;;;;;-1.75;80.49;94955.94;2062594;69;20148;-87
2023/12/17 06:02:19;;;;;;;11.30;6.25;;;;;;;-1.68;79.73;94954.78;2062127;69;20176;-91
2023/12/17 06:04:45;;;;;;;13.45;6.93;;;;;;;-1.66;79.65;94955.06;2067939;69;20145;-82
2023/12/17 06:07:11;;;;;;;11.82;6.35;;;;;;;-1.89;79.12;94960.19;2068619;69;20191;-79
2023/12/17 06:09:36;;;;;;;13.18;6.90;;;;;;;-1.89;80.52;94968.47;2067667;69;20133;-80
2023/12/17 06:12:02;;;;;;;14.63;6.80;;;;;;;-1.97;80.22;94966.56;2065560;69;20278;-87
2023/12/17 06:14:28;;;;;;;15.35;7.10;;;;;;;-1.80;80.44;94975.91;2063003;69;20585;-79
2023/12/17 06:16:54;;;;;;;13.40;6.70;;;;;;;-1.75;79.92;94971.75;2060133;69;20183;-79
2023/12/17 06:19:19;;;;;;;29.15;9.90;;;;;;;-1.79;79.72;94969.16;2063066;69;20133;-79
2023/12/17 06:21:46;;;;;;;20.75;9.43;;;;;;;-1.76;79.13;94970.22;2062536;69;20179;-79
2023/12/17 06:24:13;;;;;;;19.13;7.38;;;;;;;-1.74;79.22;94976.00;2062419;69;20153;-80
2023/12/17 06:26:38;;;;;;;11.93;6.35;;;;;;;-1.77;79.76;94972.22;2059760;69;20149;-79
2023/12/17 06:29:04;;;;;;;12.88;6.78;;;;;;;-1.90;79.19;94972.50;2065862;69;20223;-80
2023/12/17 06:31:30;;;;;;;15.02;6.38;;;;;;;-1.85;79.08;94969.06;2066991;69;20149;-78
2023/12/17 06:33:56;;;;;;;12.32;6.10;;;;;;;-1.89;79.92;94979.53;2066074;69;20661;-82
2023/12/17 06:36:24;;;;;;;17.25;7.38;;;;;;;-2.31;82.49;94982.50;2064088;69;20232;-77
2023/12/17 06:38:50;;;;;;;15.25;8.30;;;;;;;-1.95;81.61;94969.63;2062533;69;20141;-78
2023/12/17 06:41:16;;;;;;;13.25;7.63;;;;;;;-1.78;81.36;94978.22;2062756;69;20528;-80
2023/12/17 06:43:42;;;;;;;18.70;7.25;;;;;;;-1.77;80.80;94972.22;2063135;69;20319;-79
2023/12/17 06:46:15;;;;;;;12.38;6.93;;;;;;;-1.70;79.66;94982.88;2062042;69;20148;-79
2023/12/17 06:48:43;;;;;;;11.10;7.13;;;;;;;-1.71;80.32;94984.13;2062256;69;20148;-80
2023/12/17 06:51:09;;;;;;;15.38;7.90;;;;;;;-1.74;80.77;94979.56;2061775;69;20188;-79
2023/12/17 06:53:35;;;;;;;16.80;8.10;;;;;;;-1.95;81.03;94986.97;2061806;69;20173;-79
2023/12/17 06:56:01;;;;;;;13.65;7.55;;;;;;;-1.76;80.93;94979.25;2062830;69;20236;-79
2023/12/17 06:58:26;;;;;;;15.20;8.23;;;;;;;-1.75;80.24;94968.97;2061778;69;20524;-79
2023/12/17 07:00:52;;;;;;;16.55;7.80;;;;;;;-1.80;79.69;94962.88;2061990;69;20656;-79
2023/12/17 07:03:18;;;;;;;15.70;8.07;;;;;;;-1.73;79.90;94969.28;2062987;69;20221;-86
2023/12/17 07:05:45;;;;;;;16.65;8.20;;;;;;;-1.67;80.00;94973.66;2063331;69;20700;-82
2023/12/17 07:08:10;;;;;;;14.60;8.35;;;;;;;-1.69;79.53;94969.84;2063488;69;20148;-83
2023/12/17 07:10:36;;;;;;;17.80;9.45;;;;;;;-1.64;80.20;94977.47;2063289;69;20145;-79
2023/12/17 07:13:03;;;;;;;18.38;8.80;;;;;;;-1.56;79.75;94967.53;2064393;69;20160;-82
2023/12/17 07:15:30;;;;;;;21.40;9.65;;;;;;;-1.54;79.05;94965.06;2062765;69;20149;-79
2023/12/17 07:17:55;;;;;;;19.15;8.85;;;;;;;-1.54;79.31;94957.53;2062116;69;20152;-81
2023/12/17 07:20:22;;;;;;;23.92;10.65;;;;;;;-1.49;78.95;94958.88;2062324;69;20144;-80
2023/12/17 07:22:48;;;;;;;18.58;9.57;;;;;;;-1.49;79.05;94966.41;2062092;69;20656;-82
2023/12/17 07:25:17;;;;;;;15.65;8.93;;;;;;;-1.44;79.20;94960.97;2061223;69;20133;-83
2023/12/17 07:27:43;;;;;;;18.58;10.77;;;;;;;-1.44;78.84;94968.50;2062046;69;20578;-85
2023/12/17 07:30:09;;;;;;;21.50;10.13;;;;;;;-1.45;78.99;94964.97;2062028;69;20238;-83
2023/12/17 07:32:34;;;;;;;19.30;9.43;;;;;;;-1.45;78.84;94956.69;2061262;69;20165;-81
2023/12/17 07:35:00;;;;;;;19.23;9.90;;;;;;;-1.39;78.43;94962.28;2061920;69;20157;-83
2023/12/17 07:37:26;;;;;;;21.25;12.18;;;;;;;-1.41;79.33;94965.53;2061813;69;20137;-84
2023/12/17 07:39:51;;;;;;;21.20;12.10;;;;;;;-1.39;78.91;94960.28;2061955;69;20148;-83
2023/12/17 07:42:18;;;;;;;22.63;11.18;;;;;;;-1.33;79.08;94955.63;2061894;69;20555;-80
2023/12/17 07:44:44;;;;;;;21.55;10.48;;;;;;;-1.31;79.35;94960.69;2061859;69;20636;-81
2023/12/17 07:47:11;;;;;;;21.88;11.30;;;;;;;-1.32;79.20;94957.16;2061410;69;20152;-80
2023/12/17 07:49:37;;;;;;;28.15;13.85;;;;;;;-1.39;79.30;94954.75;2061890;69;20626;-85
2023/12/17 07:52:03;;;;;;;24.73;12.40;;;;;;;-1.40;79.52;94958.78;2061993;69;20137;-82
2023/12/17 07:54:29;;;;;;;32.75;15.98;;;;;;;-1.31;79.99;94961.44;2060875;69;20149;-80
2023/12/17 07:56:55;;;;;;;30.10;13.63;;;;;;;-1.19;79.97;94965.13;2062051;69;20176;-80
2023/12/17 07:59:21;;;;;;;22.88;12.20;;;;;;;-1.13;79.16;94963.22;2061790;69;20701;-81
2023/12/17 08:01:46;;;;;;;20.23;11.10;;;;;;;-1.05;78.90;94963.59;2061748;69;20134;-83
2023/12/17 08:04:13;;;;;;;25.02;12.73;;;;;;;-1.01;79.45;94969.66;2061399;69;20215;-82
2023/12/17 08:06:38;;;;;;;20.60;12.27;;;;;;;-0.98;79.57;94970.72;2061954;69;20161;-82
2023/12/17 08:09:05;;;;;;;22.00;12.18;;;;;;;-0.91;79.54;94970.31;2058496;69;20161;-83
2023/12/17 08:11:31;;;;;;;45.05;22.35;;;;;;;-0.90;79.26;94972.59;2062003;69;20149;-80
2023/12/17 08:13:57;;;;;;;58.78;26.67;;;;;;;-1.13;80.26;94968.75;2061339;69;20149;-80
2023/12/17 08:16:22;;;;;;;44.40;20.80;;;;;;;-1.21;80.97;94969.63;2058535;69;20232;-88
2023/12/17 08:18:48;;;;;;;51.70;24.20;;;;;;;-1.17;80.32;94979.22;2061194;69;20587;-81
2023/12/17 08:21:15;;;;;;;46.38;23.45;;;;;;;-1.02;80.23;94968.13;2061345;69;20196;-82
2023/12/17 08:23:43;;;;;;;56.85;26.38;;;;;;;-0.90;79.52;94982.91;2061109;69;20244;-81
2023/12/17 08:26:11;;;;;;;51.65;25.63;;;;;;;-1.02;79.86;94977.19;2061778;69;20580;-80
2023/12/17 08:28:36;;;;;;;47.38;23.15;;;;;;;-0.96;80.15;94974.53;2061256;69;20582;-80
2023/12/17 08:31:08;;;;;;;53.20;23.95;;;;;;;-0.82;79.97;94975.72;2061718;69;20228;-86
2023/12/17 08:33:34;;;;;;;374.25;123.82;;;;;;;-0.88;80.73;94978.41;2061351;69;20137;-79
2023/12/17 08:36:00;;;;;;;392.85;131.90;;;;;;;-0.80;80.88;94976.00;2062090;69;20219;-83
2023/12/17 08:38:25;;;;;;;336.70;114.50;;;;;;;-0.61;79.86;94982.81;2061862;69;20149;-84
2023/12/17 08:40:52;;;;;;;170.43;59.60;;;;;;;-0.59;79.82;94974.78;2061997;69;20160;-83
2023/12/17 08:43:22;;;;;;;245.50;96.03;;;;;;;-0.74;81.25;94970.53;2061230;69;20145;-80
2023/12/17 08:45:48;;;;;;;205.80;76.28;;;;;;;-0.49;79.99;94980.19;2061659;69;20158;-82
2023/12/17 08:48:14;;;;;;;192.40;72.38;;;;;;;-0.43;79.62;94978.25;2061218;69;20133;-81
2023/12/17 08:50:41;;;;;;;196.60;73.38;;;;;;;-0.41;79.73;94975.75;2061771;69;20149;-79
2023/12/17 08:53:06;;;;;;;178.35;70.82;;;;;;;-0.29;79.87;94980.94;2062085;69;20145;-80
2023/12/17 08:55:33;;;;;;;189.75;73.25;;;;;;;0.28;80.76;94973.28;2061532;69;20157;-77
2023/12/17 08:57:59;;;;;;;147.73;60.25;;;;;;;0.56;80.86;94965.22;2061776;69;20134;-79
2023/12/17 09:00:25;;;;;;;130.82;55.72;;;;;;;0.82;80.62;94965.16;2061676;69;20699;-81
2023/12/17 09:02:55;;;;;;;131.38;56.28;;;;;;;1.08;80.30;94957.53;2061272;69;20251;-77
2023/12/17 09:05:21;;;;;;;95.60;43.03;;;;;;;1.47;79.81;94962.59;2061111;69;20156;-79
2023/12/17 09:07:46;;;;;;;83.55;38.50;;;;;;;1.59;79.70;94958.59;2058229;69;20236;-81
2023/12/17 09:10:13;;;;;;;70.47;34.38;;;;;;;1.62;79.25;94957.59;2060913;69;20133;-78
2023/12/17 09:12:39;;;;;;;70.70;34.63;;;;;;;2.06;79.11;94959.00;2061904;69;20194;-86
2023/12/17 09:15:05;;;;;;;66.07;34.75;;;;;;;2.48;78.50;94951.81;2061872;69;20157;-88
2023/12/17 09:17:34;;;;;;;71.28;34.13;;;;;;;2.75;77.39;94951.06;2061118;69;20145;-85
2023/12/17 09:20:01;;;;;;;68.90;35.50;;;;;;;3.05;77.19;94948.50;2061018;69;20146;-81
2023/12/17 09:22:27;;;;;;;80.05;37.92;;;;;;;3.34;76.37;94951.25;2061054;69;20149;-81
2023/12/17 09:24:53;;;;;;;61.67;31.70;;;;;;;3.46;75.50;94945.16;2061431;69;20176;-81
2023/12/17 09:27:19;;;;;;;47.95;27.10;;;;;;;3.50;75.57;94942.88;2061596;69;20141;-82
2023/12/17 09:29:45;;;;;;;51.55;26.38;;;;;;;3.52;74.69;94945.88;2061690;69;20172;-81
2023/12/17 09:32:10;;;;;;;57.40;30.38;;;;;;;3.91;73.75;94958.94;2061461;69;20157;-79
2023/12/17 09:34:36;;;;;;;46.42;24.90;;;;;;;4.24;72.95;94955.22;2060999;69;20154;-78
2023/12/17 09:37:01;;;;;;;38.63;20.95;;;;;;;4.67;74.46;94956.75;2061717;69;20149;-79
2023/12/17 09:39:27;;;;;;;35.20;19.23;;;;;;;4.81;71.98;94955.63;2061208;69;20156;-78
2023/12/17 09:41:53;;;;;;;26.35;13.65;;;;;;;3.53;71.28;94939.06;2058173;69;20150;-84
2023/12/17 09:44:19;;;;;;;16.90;9.88;;;;;;;4.20;72.30;94954.00;2061519;69;20181;-81
2023/12/17 09:46:44;;;;;;;13.15;7.75;;;;;;;4.63;70.93;94951.47;2058222;69;20188;-80
2023/12/17 09:49:10;;;;;;;19.20;11.25;;;;;;;5.28;70.54;94947.13;2061446;69;20564;-82
2023/12/17 09:51:38;;;;;;;46.67;24.88;;;;;;;5.67;69.69;94949.53;2060975;69;20140;-80
2023/12/17 09:54:04;;;;;;;31.95;17.25;;;;;;;6.03;69.41;94952.19;2061272;69;20188;-81
2023/12/17 09:56:29;;;;;;;21.05;12.35;;;;;;;6.42;68.86;94939.75;2061595;69;20673;-84
2023/12/17 09:58:55;;;;;;;19.75;12.30;;;;;;;6.77;67.22;94935.91;2061423;69;20233;-85
2023/12/17 10:01:22;;;;;;;15.63;9.75;;;;;;;6.88;66.39;94933.72;2061478;69;20294;-82
2023/12/17 10:03:48;;;;;;;14.18;9.77;;;;;;;7.08;65.19;94932.38;2061182;69;20623;-81
2023/12/17 10:06:15;;;;;;;12.95;8.48;;;;;;;7.43;63.91;94924.16;2062040;69;20134;-83
2023/12/17 10:08:40;;;;;;;15.68;10.43;;;;;;;7.67;63.72;94915.53;2061417;69;20643;-80
2023/12/17 10:11:07;;;;;;;11.43;6.63;;;;;;;8.00;62.74;94908.50;2062023;69;20272;-84
2023/12/17 10:13:33;;;;;;;12.68;7.88;;;;;;;8.25;61.07;94911.09;2061454;69;20121;-81
2023/12/17 10:15:58;;;;;;;13.45;9.07;;;;;;;8.30;61.15;94910.22;2061956;69;20157;-81
2023/12/17 10:18:25;;;;;;;12.68;8.23;;;;;;;8.79;60.05;94907.56;2061924;69;20241;-83
2023/12/17 10:20:51;;;;;;;15.18;9.77;;;;;;;9.33;59.36;94908.81;2062015;69;20138;-79
2023/12/17 10:23:16;;;;;;;14.63;10.20;;;;;;;9.69;58.76;94905.34;2061379;69;20215;-81
2023/12/17 10:25:43;;;;;;;24.27;13.68;;;;;;;9.93;57.61;94898.53;2061349;69;20133;-82
2023/12/17 10:28:11;;;;;;;37.58;15.98;;;;;;;10.07;56.21;94894.28;2061336;69;20628;-80
2023/12/17 10:30:38;;;;;;;38.85;19.38;;;;;;;10.86;55.20;94884.28;2061836;69;20146;-82
2023/12/17 10:33:05;;;;;;;71.05;29.80;;;;;;;11.56;54.21;94882.25;2061861;69;20537;-85
2023/12/17 10:35:32;;;;;;;35.78;18.65;;;;;;;12.17;52.72;94876.50;2061357;69;20145;-86
2023/12/17 10:38:00;;;;;;;24.48;13.27;;;;;;;12.70;51.71;94872.69;2061923;69;20137;-86
2023/12/17 10:40:27;;;;;;;15.40;9.60;;;;;;;13.01;50.53;94869.69;2061720;69;20161;-81
2023/12/17 10:42:55;;;;;;;14.82;9.15;;;;;;;13.07;49.84;94870.97;2061264;69;20180;-77
2023/12/17 10:45:21;;;;;;;11.60;7.93;;;;;;;13.78;48.44;94864.94;2061901;69;20172;-78
2023/12/17 10:47:56;;;;;;;13.45;9.13;;;;;;;14.41;47.41;94855.94;2061334;69;20239;-79
2023/12/17 10:50:24;;;;;;;12.95;8.90;;;;;;;13.76;47.46;94855.53;2062280;69;20209;-80
2023/12/17 10:52:52;;;;;;;12.07;7.55;;;;;;;13.40;47.04;94870.94;2064345;69;20224;-80
2023/12/17 10:55:19;;;;;;;12.40;7.25;;;;;;;15.51;45.79;94863.84;2064715;69;20161;-83
2023/12/17 10:58:11;;;;;;;14.85;10.23;;;;;;;16.80;43.20;94859.22;2063234;69;20548;-85
2023/12/17 11:00:39;;;;;;;21.67;11.80;;;;;;;17.03;43.35;94845.22;2061794;69;20137;-81
2023/12/17 11:03:07;;;;;;;16.88;10.98;;;;;;;15.97;41.93;94848.91;2063908;69;20157;-81
2023/12/17 11:05:33;;;;;;;18.30;10.68;;;;;;;13.80;42.93;94839.63;2064167;69;20157;-83
2023/12/17 11:08:00;;;;;;;19.85;11.70;;;;;;;11.48;46.24;94831.47;2065202;69;20145;-85
2023/12/17 11:10:26;;;;;;;20.95;12.05;;;;;;;11.48;47.97;94825.09;2065704;69;20152;-84
2023/12/17 11:12:54;;;;;;;20.33;11.50;;;;;;;10.89;49.17;94831.66;2062393;69;20248;-85
2023/12/17 11:15:23;;;;;;;17.80;10.70;;;;;;;10.21;50.38;94832.25;2064791;69;20152;-78
2023/12/17 11:17:54;;;;;;;15.52;10.40;;;;;;;10.03;51.05;94831.97;2064219;69;20204;-85
2023/12/17 11:20:21;;;;;;;22.50;14.38;;;;;;;9.54;51.14;94832.13;2067263;69;20145;-86
2023/12/17 11:22:47;;;;;;;21.02;13.68;;;;;;;9.15;52.51;94820.59;2067854;69;20150;-85